createdAt,value
2023-02-19T00:00:06.321Z,12.01
2023-02-19T00:00:38.202Z,12.00
2023-02-19T00:01:16.852Z,12.00
2023-02-19T00:01:48.572Z,12.01
2023-02-19T00:02:20.272Z,12.01
2023-02-19T00:02:52.797Z,12.00
2023-02-19T00:03:24.549Z,11.99
2023-02-19T00:03:59.097Z,12.01
2023-02-19T00:04:30.759Z,12.00
2023-02-19T00:05:02.414Z,11.99
2023-02-19T00:05:35.318Z,11.98
2023-02-19T00:06:10.356Z,11.98
2023-02-19T00:06:43.878Z,12.00
2023-02-19T00:07:15.522Z,12.00
2023-02-19T00:07:47.166Z,12.00
2023-02-19T00:08:18.834Z,11.99
2023-02-19T00:08:50.996Z,11.96
2023-02-19T00:09:22.648Z,11.99
2023-02-19T00:09:54.276Z,11.99
2023-02-19T00:10:25.950Z,12.00
2023-02-19T00:11:05.473Z,11.94
2023-02-19T00:11:37.830Z,11.94
2023-02-19T00:12:09.680Z,11.95
2023-02-19T00:12:41.337Z,11.94
2023-02-19T00:13:13.212Z,11.94
2023-02-19T00:13:48.399Z,11.92
2023-02-19T00:14:21.397Z,11.93
2023-02-19T00:14:55.133Z,11.93
2023-02-19T00:15:26.788Z,11.94
2023-02-19T00:15:58.591Z,11.91
2023-02-19T00:16:33.525Z,11.93
2023-02-19T00:17:05.192Z,11.94
2023-02-19T00:17:36.815Z,11.93
2023-02-19T00:18:08.476Z,11.91
2023-02-19T00:18:40.791Z,11.90
2023-02-19T00:19:18.041Z,11.92
2023-02-19T00:19:49.712Z,11.90
2023-02-19T00:20:21.345Z,11.91
2023-02-19T00:20:56.428Z,11.91
2023-02-19T00:21:28.989Z,11.91
2023-02-19T00:22:00.622Z,11.92
2023-02-19T00:22:32.378Z,11.90
2023-02-19T00:23:04.119Z,11.91
2023-02-19T00:23:36.231Z,11.90
2023-02-19T00:24:10.555Z,11.93
2023-02-19T00:24:42.239Z,11.93
2023-02-19T00:25:13.908Z,11.93
2023-02-19T00:25:45.587Z,11.94
2023-02-19T00:26:18.752Z,11.93
2023-02-19T00:26:53.017Z,11.97
2023-02-19T00:27:24.725Z,11.96
2023-02-19T00:27:56.734Z,11.98
2023-02-19T00:28:28.368Z,11.98
2023-02-19T00:29:01.809Z,11.96
2023-02-19T00:29:33.451Z,11.96
2023-02-19T00:30:05.350Z,11.96
2023-02-19T00:30:37.012Z,11.99
2023-02-19T00:31:14.853Z,11.99
2023-02-19T00:31:47.498Z,11.98
2023-02-19T00:32:19.219Z,11.98
2023-02-19T00:32:51.757Z,11.97
2023-02-19T00:33:23.404Z,11.98
2023-02-19T00:33:57.747Z,11.97
2023-02-19T00:34:29.472Z,11.97
2023-02-19T00:35:01.101Z,11.96
2023-02-19T00:35:35.100Z,11.97
2023-02-19T00:36:07.187Z,11.94
2023-02-19T00:36:40.577Z,11.94
2023-02-19T00:37:12.179Z,11.99
2023-02-19T00:37:43.815Z,11.97
2023-02-19T00:38:15.452Z,11.98
2023-02-19T00:38:47.519Z,11.96
2023-02-19T00:39:19.253Z,11.95
2023-02-19T00:39:50.933Z,11.92
2023-02-19T00:40:22.869Z,11.92
2023-02-19T00:40:54.633Z,11.92
2023-02-19T00:41:26.687Z,11.91
2023-02-19T00:42:00.694Z,11.92
2023-02-19T00:42:32.314Z,11.93
2023-02-19T00:43:04.033Z,11.91
2023-02-19T00:43:35.652Z,11.91
2023-02-19T00:44:08.486Z,11.90
2023-02-19T00:44:40.157Z,11.90
2023-02-19T00:45:11.803Z,11.88
2023-02-19T00:45:43.454Z,11.87
2023-02-19T00:46:17.380Z,11.88
2023-02-19T00:46:49.078Z,11.86
2023-02-19T00:47:20.699Z,11.85
2023-02-19T00:47:52.904Z,11.84
2023-02-19T00:48:24.511Z,11.83
2023-02-19T00:48:57.148Z,11.84
2023-02-19T00:49:28.757Z,11.84
2023-02-19T00:50:00.512Z,11.81
2023-02-19T00:50:32.170Z,11.81
2023-02-19T00:51:03.908Z,11.82
2023-02-19T00:51:38.146Z,11.79
2023-02-19T00:52:09.811Z,11.78
2023-02-19T00:52:41.490Z,11.82
2023-02-19T00:53:13.120Z,11.81
2023-02-19T00:53:44.945Z,11.79
2023-02-19T00:54:17.347Z,11.81
2023-02-19T00:54:48.981Z,11.78
2023-02-19T00:55:20.672Z,11.80
2023-02-19T00:55:52.333Z,11.81
2023-02-19T00:56:24.430Z,11.82
2023-02-19T00:56:56.047Z,11.81
2023-02-19T00:57:27.975Z,11.78
2023-02-19T00:57:59.630Z,11.78
2023-02-19T00:58:31.393Z,11.78
2023-02-19T00:59:03.114Z,11.80
2023-02-19T00:59:36.881Z,11.78
2023-02-19T01:00:10.051Z,11.79
2023-02-19T01:00:41.682Z,11.77
2023-02-19T01:01:13.942Z,11.78
2023-02-19T01:01:45.919Z,11.78
2023-02-19T01:02:17.811Z,11.76
2023-02-19T01:02:49.426Z,11.76
2023-02-19T01:03:22.707Z,11.77
2023-02-19T01:03:54.343Z,11.79
2023-02-19T01:04:26.074Z,11.77
2023-02-19T01:04:57.789Z,11.77
2023-02-19T01:05:29.524Z,11.78
2023-02-19T01:06:02.410Z,11.73
2023-02-19T01:06:34.738Z,11.76
2023-02-19T01:07:07.047Z,11.75
2023-02-19T01:07:39.820Z,11.75
2023-02-19T01:08:11.488Z,11.75
2023-02-19T01:08:43.771Z,11.76
2023-02-19T01:09:15.454Z,11.73
2023-02-19T01:09:47.079Z,11.75
2023-02-19T01:10:18.790Z,11.74
2023-02-19T01:10:50.567Z,11.74
2023-02-19T01:11:22.193Z,11.74
2023-02-19T01:11:53.801Z,11.74
2023-02-19T01:12:25.765Z,11.73
2023-02-19T01:12:57.408Z,11.75
2023-02-19T01:13:29.124Z,11.72
2023-02-19T01:14:01.647Z,11.75
2023-02-19T01:14:33.791Z,11.76
2023-02-19T01:15:05.624Z,11.72
2023-02-19T01:15:37.306Z,11.72
2023-02-19T01:16:18.938Z,11.70
2023-02-19T01:16:50.610Z,11.69
2023-02-19T01:17:22.281Z,11.70
2023-02-19T01:17:53.923Z,11.70
2023-02-19T01:18:25.540Z,11.70
2023-02-19T01:18:57.825Z,11.69
2023-02-19T01:19:29.574Z,11.72
2023-02-19T01:20:01.211Z,11.72
2023-02-19T01:20:32.939Z,11.71
2023-02-19T01:21:10.701Z,11.68
2023-02-19T01:21:42.547Z,11.65
2023-02-19T01:22:14.232Z,11.68
2023-02-19T01:22:45.895Z,11.69
2023-02-19T01:23:17.525Z,11.69
2023-02-19T01:23:51.050Z,11.65
2023-02-19T01:24:22.718Z,11.66
2023-02-19T01:24:54.360Z,11.66
2023-02-19T01:25:26.137Z,11.64
2023-02-19T01:25:57.804Z,11.65
2023-02-19T01:26:32.140Z,11.66
2023-02-19T01:27:03.806Z,11.65
2023-02-19T01:27:35.416Z,11.63
2023-02-19T01:28:07.417Z,11.63
2023-02-19T01:28:39.280Z,11.61
2023-02-19T01:29:10.943Z,11.63
2023-02-19T01:29:42.813Z,11.63
2023-02-19T01:30:14.769Z,11.57
2023-02-19T01:30:46.416Z,11.58
2023-02-19T01:31:23.189Z,11.58
2023-02-19T01:31:55.006Z,11.58
2023-02-19T01:32:26.704Z,11.56
2023-02-19T01:32:58.360Z,11.55
2023-02-19T01:33:30.705Z,11.56
2023-02-19T01:34:04.188Z,11.53
2023-02-19T01:34:35.872Z,11.56
2023-02-19T01:35:07.707Z,11.57
2023-02-19T01:35:40.149Z,11.57
2023-02-19T01:36:11.814Z,11.55
2023-02-19T01:36:43.460Z,11.58
2023-02-19T01:37:15.087Z,11.56
2023-02-19T01:37:46.713Z,11.59
2023-02-19T01:38:18.356Z,11.59
2023-02-19T01:38:50.043Z,11.61
2023-02-19T01:39:21.738Z,11.63
2023-02-19T01:39:53.404Z,11.61
2023-02-19T01:40:25.769Z,11.63
2023-02-19T01:41:00.218Z,11.64
2023-02-19T01:41:34.482Z,11.66
2023-02-19T01:42:17.006Z,11.67
2023-02-19T01:42:48.848Z,11.68
2023-02-19T01:43:20.464Z,11.70
2023-02-19T01:44:04.159Z,11.65
2023-02-19T01:44:35.743Z,11.66
2023-02-19T01:45:25.507Z,11.68
2023-02-19T01:45:57.188Z,11.69
2023-02-19T01:46:33.532Z,11.66
2023-02-19T01:47:05.245Z,11.65
2023-02-19T01:47:36.936Z,11.66
2023-02-19T01:48:17.558Z,11.65
2023-02-19T01:48:49.197Z,11.66
2023-02-19T01:49:29.455Z,11.61
2023-02-19T01:50:01.116Z,11.64
2023-02-19T01:50:38.786Z,11.64
2023-02-19T01:51:16.302Z,11.66
2023-02-19T01:51:57.878Z,11.67
2023-02-19T01:52:34.374Z,11.71
2023-02-19T01:53:11.172Z,11.72
2023-02-19T01:53:47.580Z,11.70
2023-02-19T01:54:22.804Z,11.68
2023-02-19T01:54:55.994Z,11.67
2023-02-19T01:55:27.659Z,11.65
2023-02-19T01:56:02.654Z,11.64
2023-02-19T01:56:38.405Z,11.66
2023-02-19T01:57:19.374Z,11.63
2023-02-19T01:57:55.334Z,11.68
2023-02-19T01:58:32.285Z,11.66
2023-02-19T01:59:05.764Z,11.63
2023-02-19T01:59:38.331Z,11.64
2023-02-19T02:00:14.211Z,11.63
2023-02-19T02:00:45.949Z,11.65
2023-02-19T02:01:17.605Z,11.60
2023-02-19T02:01:49.792Z,11.61
2023-02-19T02:02:25.070Z,11.60
2023-02-19T02:02:58.767Z,11.62
2023-02-19T02:03:31.385Z,11.58
2023-02-19T02:04:05.974Z,11.59
2023-02-19T02:04:38.000Z,11.59
2023-02-19T02:05:37.494Z,11.61
2023-02-19T02:06:21.475Z,11.56
2023-02-19T02:06:56.346Z,11.55
2023-02-19T02:07:46.514Z,11.55
2023-02-19T02:08:37.400Z,11.52
2023-02-19T02:09:28.263Z,11.52
2023-02-19T02:10:18.676Z,11.53
2023-02-19T02:10:51.177Z,11.46
2023-02-19T02:11:23.346Z,11.50
2023-02-19T02:11:55.015Z,11.49
2023-02-19T02:12:26.668Z,11.49
2023-02-19T02:12:58.953Z,11.51
2023-02-19T02:13:34.337Z,11.51
2023-02-19T02:14:06.158Z,11.49
2023-02-19T02:14:41.628Z,11.48
2023-02-19T02:15:15.288Z,11.50
2023-02-19T02:16:42.220Z,11.47
2023-02-19T02:17:34.170Z,11.37
2023-02-19T02:18:28.579Z,11.42
2023-02-19T02:19:00.221Z,11.42
2023-02-19T02:19:53.208Z,11.41
2023-02-19T02:20:52.331Z,11.34
2023-02-19T02:21:45.846Z,11.34
2023-02-19T02:22:26.677Z,11.34
2023-02-19T02:23:22.807Z,11.36
2023-02-19T02:24:05.791Z,11.35
2023-02-19T02:25:07.654Z,11.35
2023-02-19T02:25:39.432Z,11.35
2023-02-19T02:26:44.176Z,11.33
2023-02-19T02:27:40.899Z,11.33
2023-02-19T02:28:28.484Z,11.35
2023-02-19T02:29:29.866Z,11.33
2023-02-19T02:30:32.707Z,11.35
2023-02-19T02:31:15.129Z,11.34
2023-02-19T02:31:59.659Z,11.30
2023-02-19T02:32:56.796Z,11.33
2023-02-19T02:33:47.836Z,11.32
2023-02-19T02:34:27.458Z,11.33
2023-02-19T02:35:05.733Z,11.29
2023-02-19T02:35:54.359Z,11.30
2023-02-19T02:36:37.622Z,11.26
2023-02-19T02:37:11.084Z,11.25
2023-02-19T02:37:45.674Z,11.25
2023-02-19T02:38:20.557Z,11.23
2023-02-19T02:38:54.289Z,11.26
2023-02-19T02:39:29.460Z,11.27
2023-02-19T02:40:03.823Z,11.28
2023-02-19T02:40:37.381Z,11.28
2023-02-19T02:41:09.634Z,11.28
2023-02-19T02:41:44.446Z,11.29
2023-02-19T02:42:28.334Z,11.26
2023-02-19T02:43:00.795Z,11.23
2023-02-19T02:43:33.251Z,11.21
2023-02-19T02:44:05.111Z,11.23
2023-02-19T02:44:37.771Z,11.25
2023-02-19T02:45:36.032Z,11.27
2023-02-19T02:46:12.869Z,11.22
2023-02-19T02:46:46.558Z,11.23
2023-02-19T02:47:37.203Z,11.20
2023-02-19T02:48:14.604Z,11.23
2023-02-19T02:48:54.046Z,11.21
2023-02-19T02:49:26.897Z,11.22
2023-02-19T02:50:06.192Z,11.17
2023-02-19T02:51:07.206Z,11.18
2023-02-19T02:51:43.510Z,11.17
2023-02-19T02:52:35.547Z,11.18
2023-02-19T02:53:34.504Z,11.17
2023-02-19T02:54:37.325Z,11.14
2023-02-19T02:55:11.809Z,11.10
2023-02-19T02:55:49.829Z,11.10
2023-02-19T02:56:25.040Z,11.13
2023-02-19T02:56:57.614Z,11.14
2023-02-19T02:57:29.323Z,11.09
2023-02-19T02:58:01.938Z,11.08
2023-02-19T02:58:34.661Z,11.07
2023-02-19T02:59:10.078Z,11.11
2023-02-19T02:59:43.267Z,11.10
2023-02-19T03:00:15.950Z,11.11
2023-02-19T03:01:14.890Z,11.10
2023-02-19T03:02:08.071Z,11.08
2023-02-19T03:02:42.542Z,11.10
2023-02-19T03:03:20.000Z,11.11
2023-02-19T03:03:58.730Z,11.08
2023-02-19T03:05:15.547Z,11.07
2023-02-19T03:05:53.275Z,11.11
2023-02-19T03:06:31.489Z,11.14
2023-02-19T03:07:09.510Z,11.13
2023-02-19T03:07:54.283Z,11.12
2023-02-19T03:08:31.664Z,11.13
2023-02-19T03:09:16.121Z,11.11
2023-02-19T03:09:49.627Z,11.08
2023-02-19T03:10:29.394Z,11.11
2023-02-19T03:11:26.726Z,11.13
2023-02-19T03:12:22.343Z,11.10
2023-02-19T03:13:17.857Z,11.08
2023-02-19T03:14:17.250Z,11.09
2023-02-19T03:15:15.081Z,11.08
2023-02-19T03:16:16.636Z,11.05
2023-02-19T03:17:09.382Z,11.06
2023-02-19T03:18:12.642Z,11.05
2023-02-19T03:19:07.351Z,11.04
2023-02-19T03:19:46.265Z,11.00
2023-02-19T03:20:22.957Z,11.02
2023-02-19T03:20:57.959Z,11.01
2023-02-19T03:21:29.621Z,10.95
2023-02-19T03:22:16.672Z,10.94
2023-02-19T03:22:52.127Z,10.91
2023-02-19T03:23:48.767Z,10.91
2023-02-19T03:24:45.534Z,10.91
2023-02-19T03:25:40.731Z,10.88
2023-02-19T03:26:14.261Z,10.83
2023-02-19T03:26:53.880Z,10.83
2023-02-19T03:27:30.528Z,10.82
2023-02-19T03:28:05.446Z,10.78
2023-02-19T03:28:59.052Z,10.79
2023-02-19T03:29:36.440Z,10.75
2023-02-19T03:30:15.631Z,10.76
2023-02-19T03:30:53.816Z,10.72
2023-02-19T03:31:30.089Z,10.71
2023-02-19T03:32:08.786Z,10.73
2023-02-19T03:32:48.264Z,10.74
2023-02-19T03:33:28.666Z,10.73
2023-02-19T03:34:06.904Z,10.71
2023-02-19T03:34:44.468Z,10.71
2023-02-19T03:35:24.760Z,10.70
2023-02-19T03:36:02.322Z,10.68
2023-02-19T03:36:40.889Z,10.64
2023-02-19T03:37:17.369Z,10.64
2023-02-19T03:38:03.831Z,10.62
2023-02-19T03:38:57.408Z,10.56
2023-02-19T03:39:29.309Z,10.57
2023-02-19T03:40:01.145Z,10.56
2023-02-19T03:40:44.007Z,10.59
2023-02-19T03:41:33.343Z,10.55
2023-02-19T03:42:34.912Z,10.51
2023-02-19T03:43:14.990Z,10.50
2023-02-19T03:44:02.164Z,10.50
2023-02-19T03:44:42.918Z,10.47
2023-02-19T03:45:33.293Z,10.48
2023-02-19T03:46:23.551Z,10.48
2023-02-19T03:47:10.159Z,10.49
2023-02-19T03:47:45.515Z,10.47
2023-02-19T03:48:25.176Z,10.45
2023-02-19T03:49:05.929Z,10.47
2023-02-19T03:49:48.850Z,10.47
2023-02-19T03:50:44.560Z,10.42
2023-02-19T03:51:20.791Z,10.39
2023-02-19T03:52:10.566Z,10.38
2023-02-19T03:53:03.780Z,10.39
2023-02-19T03:54:03.556Z,10.38
2023-02-19T03:54:43.945Z,10.36
2023-02-19T03:55:59.045Z,10.36
2023-02-19T03:56:53.926Z,10.35
2023-02-19T03:57:32.171Z,10.37
2023-02-19T03:58:24.569Z,10.34
2023-02-19T03:58:59.158Z,10.33
2023-02-19T03:59:42.543Z,10.30
2023-02-19T04:00:17.960Z,10.27
2023-02-19T04:00:58.514Z,10.23
2023-02-19T04:02:00.813Z,10.29
2023-02-19T04:02:39.520Z,10.32
2023-02-19T04:03:35.294Z,10.31
2023-02-19T04:04:19.005Z,10.31
2023-02-19T04:05:01.875Z,10.27
2023-02-19T04:05:39.119Z,10.30
2023-02-19T04:06:16.871Z,10.27
2023-02-19T04:06:54.536Z,10.28
2023-02-19T04:07:28.994Z,10.27
2023-02-19T04:08:11.119Z,10.28
2023-02-19T04:08:49.499Z,10.28
2023-02-19T04:09:23.387Z,10.26
2023-02-19T04:09:55.765Z,10.26
2023-02-19T04:10:29.613Z,10.26
2023-02-19T04:11:02.284Z,10.26
2023-02-19T04:11:33.995Z,10.25
2023-02-19T04:12:07.812Z,10.22
2023-02-19T04:12:45.974Z,10.22
2023-02-19T04:13:26.957Z,10.25
2023-02-19T04:14:18.015Z,10.24
2023-02-19T04:15:00.102Z,10.26
2023-02-19T04:15:34.392Z,10.19
2023-02-19T04:16:15.686Z,10.22
2023-02-19T04:16:55.711Z,10.22
2023-02-19T04:17:46.207Z,10.22
2023-02-19T04:18:30.688Z,10.22
2023-02-19T04:19:16.048Z,10.18
2023-02-19T04:19:51.594Z,10.17
2023-02-19T04:20:27.658Z,10.15
2023-02-19T04:21:00.823Z,10.17
2023-02-19T04:21:35.082Z,10.16
2023-02-19T04:22:09.744Z,10.15
2023-02-19T04:22:42.324Z,10.14
2023-02-19T04:23:20.046Z,10.14
2023-02-19T04:23:52.237Z,10.12
2023-02-19T04:24:34.852Z,10.12
2023-02-19T04:25:07.938Z,10.13
2023-02-19T04:25:45.212Z,10.12
2023-02-19T04:26:19.938Z,10.10
2023-02-19T04:26:53.063Z,10.09
2023-02-19T04:27:24.705Z,10.12
2023-02-19T04:27:56.489Z,10.12
2023-02-19T04:28:29.236Z,10.14
2023-02-19T04:29:01.899Z,10.13
2023-02-19T04:29:33.553Z,10.13
2023-02-19T04:30:07.499Z,10.13
2023-02-19T04:30:39.413Z,10.12
2023-02-19T04:31:11.703Z,10.12
2023-02-19T04:31:43.709Z,10.10
2023-02-19T04:32:15.408Z,10.08
2023-02-19T04:32:47.045Z,10.09
2023-02-19T04:33:18.766Z,10.05
2023-02-19T04:33:50.444Z,10.07
2023-02-19T04:34:22.139Z,9.99
2023-02-19T04:34:54.377Z,9.97
2023-02-19T04:35:26.149Z,9.96
2023-02-19T04:35:57.764Z,9.96
2023-02-19T04:36:30.853Z,9.92
2023-02-19T04:37:02.916Z,9.94
2023-02-19T04:37:34.552Z,9.95
2023-02-19T04:38:06.333Z,9.94
2023-02-19T04:38:38.361Z,9.92
2023-02-19T04:39:10.021Z,9.91
2023-02-19T04:39:41.649Z,9.88
2023-02-19T04:40:13.288Z,9.86
2023-02-19T04:40:44.981Z,9.86
2023-02-19T04:41:16.880Z,9.86
2023-02-19T04:41:48.597Z,9.84
2023-02-19T04:42:20.234Z,9.85
2023-02-19T04:42:51.952Z,9.86
2023-02-19T04:43:23.642Z,9.84
2023-02-19T04:43:55.318Z,9.84
2023-02-19T04:44:27.009Z,9.84
2023-02-19T04:44:58.708Z,9.85
2023-02-19T04:45:30.449Z,9.84
2023-02-19T04:46:02.691Z,9.84
2023-02-19T04:46:34.444Z,9.82
2023-02-19T04:47:08.689Z,9.82
2023-02-19T04:47:40.366Z,9.83
2023-02-19T04:48:12.076Z,9.84
2023-02-19T04:48:44.416Z,9.86
2023-02-19T04:49:16.206Z,9.85
2023-02-19T04:49:47.853Z,9.81
2023-02-19T04:50:19.576Z,9.80
2023-02-19T04:50:51.239Z,9.81
2023-02-19T04:51:22.915Z,9.79
2023-02-19T04:51:54.528Z,9.81
2023-02-19T04:52:26.233Z,9.80
2023-02-19T04:52:57.907Z,9.81
2023-02-19T04:53:29.555Z,9.78
2023-02-19T04:54:01.235Z,9.72
2023-02-19T04:54:32.874Z,9.73
2023-02-19T04:55:04.897Z,9.72
2023-02-19T04:55:38.094Z,9.73
2023-02-19T04:56:12.977Z,9.75
2023-02-19T04:56:44.629Z,9.75
2023-02-19T04:57:16.264Z,9.73
2023-02-19T04:57:48.090Z,9.73
2023-02-19T04:58:20.441Z,9.70
2023-02-19T04:58:52.228Z,9.70
2023-02-19T04:59:23.868Z,9.68
2023-02-19T04:59:55.511Z,9.65
2023-02-19T05:00:27.187Z,9.64
2023-02-19T05:00:58.823Z,9.64
2023-02-19T05:01:30.564Z,9.62
2023-02-19T05:02:02.249Z,9.60
2023-02-19T05:02:34.077Z,9.60
2023-02-19T05:03:05.780Z,9.60
2023-02-19T05:03:38.036Z,9.59
2023-02-19T05:04:09.720Z,9.60
2023-02-19T05:04:41.630Z,9.63
2023-02-19T05:05:13.334Z,9.62
2023-02-19T05:05:44.982Z,9.62
2023-02-19T05:06:17.023Z,9.61
2023-02-19T05:06:48.715Z,9.62
2023-02-19T05:07:20.376Z,9.61
2023-02-19T05:07:52.117Z,9.61
2023-02-19T05:08:23.821Z,9.61
2023-02-19T05:08:55.461Z,9.60
2023-02-19T05:09:27.096Z,9.54
2023-02-19T05:09:59.776Z,9.49
2023-02-19T05:10:31.473Z,9.44
2023-02-19T05:11:05.426Z,9.41
2023-02-19T05:11:37.156Z,9.38
2023-02-19T05:12:08.805Z,9.40
2023-02-19T05:12:40.452Z,9.39
2023-02-19T05:13:12.298Z,9.38
2023-02-19T05:13:43.959Z,9.32
2023-02-19T05:14:17.181Z,9.30
2023-02-19T05:14:49.225Z,9.24
2023-02-19T05:15:20.845Z,9.21
2023-02-19T05:16:00.630Z,9.21
2023-02-19T05:16:33.259Z,9.19
2023-02-19T05:17:04.931Z,9.09
2023-02-19T05:17:36.589Z,9.06
2023-02-19T05:18:08.244Z,9.07
2023-02-19T05:18:40.699Z,9.12
2023-02-19T05:19:12.902Z,9.13
2023-02-19T05:19:45.482Z,9.15
2023-02-19T05:20:17.315Z,9.12
2023-02-19T05:20:50.346Z,9.15
2023-02-19T05:21:22.039Z,9.15
2023-02-19T05:21:53.729Z,9.17
2023-02-19T05:22:25.699Z,9.16
2023-02-19T05:22:57.320Z,9.13
2023-02-19T05:23:29.116Z,9.14
2023-02-19T05:24:00.759Z,9.12
2023-02-19T05:24:32.449Z,9.09
2023-02-19T05:25:04.465Z,9.09
2023-02-19T05:25:36.097Z,9.09
2023-02-19T05:26:11.847Z,9.04
2023-02-19T05:26:45.350Z,9.06
2023-02-19T05:27:17.147Z,9.11
2023-02-19T05:27:48.810Z,9.09
2023-02-19T05:28:21.088Z,9.01
2023-02-19T05:28:53.782Z,8.96
2023-02-19T05:29:25.486Z,8.95
2023-02-19T05:29:57.115Z,8.95
2023-02-19T05:30:28.823Z,8.92
2023-02-19T05:31:06.659Z,8.90
2023-02-19T05:31:38.451Z,8.91
2023-02-19T05:32:10.507Z,8.90
2023-02-19T05:32:42.190Z,8.85
2023-02-19T05:33:14.706Z,8.81
2023-02-19T05:33:51.048Z,8.84
2023-02-19T05:34:22.945Z,8.82
2023-02-19T05:34:54.629Z,8.81
2023-02-19T05:35:26.312Z,8.82
2023-02-19T05:35:58.013Z,8.81
2023-02-19T05:36:29.975Z,8.81
2023-02-19T05:37:01.647Z,8.78
2023-02-19T05:37:33.284Z,8.75
2023-02-19T05:38:05.932Z,8.73
2023-02-19T05:38:39.137Z,8.75
2023-02-19T05:39:12.269Z,8.76
2023-02-19T05:39:43.885Z,8.73
2023-02-19T05:40:15.584Z,8.72
2023-02-19T05:40:47.566Z,8.70
2023-02-19T05:41:22.233Z,8.73
2023-02-19T05:41:53.849Z,8.74
2023-02-19T05:42:25.524Z,8.73
2023-02-19T05:42:57.178Z,8.74
2023-02-19T05:43:28.814Z,8.76
2023-02-19T05:44:00.852Z,8.77
2023-02-19T05:44:32.481Z,8.73
2023-02-19T05:45:04.411Z,8.74
2023-02-19T05:45:36.441Z,8.75
2023-02-19T05:46:09.355Z,8.78
2023-02-19T05:46:41.068Z,8.75
2023-02-19T05:47:12.747Z,8.73
2023-02-19T05:47:44.373Z,8.69
2023-02-19T05:48:16.005Z,8.72
2023-02-19T05:48:48.700Z,8.73
2023-02-19T05:49:20.346Z,8.70
2023-02-19T05:49:52.000Z,8.70
2023-02-19T05:50:24.022Z,8.65
2023-02-19T05:51:02.117Z,8.66
2023-02-19T05:51:33.969Z,8.71
2023-02-19T05:52:05.616Z,8.79
2023-02-19T05:52:37.283Z,8.75
2023-02-19T05:53:09.681Z,8.76
2023-02-19T05:53:43.014Z,8.76
2023-02-19T05:54:14.699Z,8.76
2023-02-19T05:54:46.328Z,8.76
2023-02-19T05:55:18.088Z,8.77
2023-02-19T05:55:49.704Z,8.77
2023-02-19T05:56:34.877Z,8.73
2023-02-19T05:57:06.575Z,8.70
2023-02-19T05:57:43.626Z,8.69
2023-02-19T05:58:15.506Z,8.71
2023-02-19T05:58:47.224Z,8.78
2023-02-19T05:59:24.502Z,8.80
2023-02-19T05:59:56.864Z,8.81
2023-02-19T06:00:28.626Z,8.94
2023-02-19T06:01:00.267Z,8.88
2023-02-19T06:01:32.191Z,8.86
2023-02-19T06:02:03.859Z,8.87
2023-02-19T06:02:36.765Z,8.82
2023-02-19T06:03:08.432Z,8.80
2023-02-19T06:03:40.103Z,8.81
2023-02-19T06:04:12.899Z,8.81
2023-02-19T06:04:44.540Z,8.84
2023-02-19T06:05:16.291Z,8.85
2023-02-19T06:05:48.452Z,8.84
2023-02-19T06:06:21.139Z,8.80
2023-02-19T06:06:52.782Z,8.80
2023-02-19T06:07:24.455Z,8.78
2023-02-19T06:07:56.162Z,8.76
2023-02-19T06:08:28.198Z,8.77
2023-02-19T06:08:59.831Z,8.75
2023-02-19T06:09:32.377Z,8.77
2023-02-19T06:10:04.189Z,8.79
2023-02-19T06:10:37.252Z,8.79
2023-02-19T06:11:09.783Z,8.76
2023-02-19T06:11:43.395Z,8.74
2023-02-19T06:12:15.057Z,8.75
2023-02-19T06:12:46.692Z,8.72
2023-02-19T06:13:18.461Z,8.72
2023-02-19T06:13:50.641Z,8.71
2023-02-19T06:14:22.313Z,8.70
2023-02-19T06:14:54.032Z,8.77
2023-02-19T06:15:25.733Z,8.83
2023-02-19T06:15:57.438Z,8.83
2023-02-19T06:16:29.377Z,8.78
2023-02-19T06:17:01.078Z,8.76
2023-02-19T06:17:34.108Z,8.85
2023-02-19T06:18:05.780Z,8.85
2023-02-19T06:18:39.157Z,8.81
2023-02-19T06:19:10.874Z,9.04
2023-02-19T06:19:42.960Z,9.36
2023-02-19T06:20:14.746Z,10.02
2023-02-19T06:20:46.400Z,10.50
2023-02-19T06:21:18.557Z,10.30
2023-02-19T06:21:50.988Z,10.34
2023-02-19T06:22:22.634Z,10.30
2023-02-19T06:22:54.459Z,10.16
2023-02-19T06:23:28.408Z,9.98
2023-02-19T06:24:05.124Z,9.93
2023-02-19T06:24:37.688Z,9.85
2023-02-19T06:25:12.575Z,9.90
2023-02-19T06:25:44.224Z,9.85
2023-02-19T06:26:20.748Z,9.79
2023-02-19T06:26:52.373Z,9.64
2023-02-19T06:27:24.110Z,9.58
2023-02-19T06:27:55.812Z,9.59
2023-02-19T06:28:27.436Z,9.59
2023-02-19T06:28:59.167Z,10.05
2023-02-19T06:29:32.548Z,10.81
2023-02-19T06:30:04.400Z,10.86
2023-02-19T06:30:36.771Z,10.60
2023-02-19T06:31:10.418Z,10.36
2023-02-19T06:31:42.546Z,10.47
2023-02-19T06:32:14.362Z,10.77
2023-02-19T06:32:46.066Z,10.99
2023-02-19T06:33:17.712Z,11.07
2023-02-19T06:33:50.705Z,11.08
2023-02-19T06:34:22.551Z,11.47
2023-02-19T06:34:54.267Z,11.82
2023-02-19T06:35:25.965Z,11.96
2023-02-19T06:36:00.112Z,12.15
2023-02-19T06:36:31.802Z,12.46
2023-02-19T06:37:03.526Z,12.52
2023-02-19T06:37:35.170Z,12.52
2023-02-19T06:38:06.833Z,12.76
2023-02-19T06:38:38.723Z,12.90
2023-02-19T06:39:10.697Z,12.91
2023-02-19T06:39:43.713Z,12.75
2023-02-19T06:40:16.229Z,12.42
2023-02-19T06:40:47.841Z,12.56
2023-02-19T06:41:19.704Z,12.60
2023-02-19T06:41:51.792Z,12.52
2023-02-19T06:42:23.484Z,12.32
2023-02-19T06:42:55.309Z,12.14
2023-02-19T06:43:26.953Z,11.88
2023-02-19T06:43:58.801Z,11.71
2023-02-19T06:44:30.448Z,11.55
2023-02-19T06:45:02.108Z,11.42
2023-02-19T06:45:33.875Z,11.40
2023-02-19T06:46:07.844Z,11.29
2023-02-19T06:46:39.683Z,11.17
2023-02-19T06:47:11.354Z,11.15
2023-02-19T06:47:43.050Z,10.98
2023-02-19T06:48:14.686Z,10.96
2023-02-19T06:48:46.389Z,10.93
2023-02-19T06:49:18.152Z,10.81
2023-02-19T06:49:49.774Z,10.73
2023-02-19T06:50:21.450Z,10.62
2023-02-19T06:50:53.433Z,10.56
2023-02-19T06:51:27.222Z,10.51
2023-02-19T06:52:00.557Z,10.51
2023-02-19T06:52:32.222Z,10.49
2023-02-19T06:53:03.955Z,10.41
2023-02-19T06:53:35.566Z,10.40
2023-02-19T06:54:07.539Z,10.35
2023-02-19T06:54:39.177Z,10.27
2023-02-19T06:55:10.875Z,10.19
2023-02-19T06:55:42.545Z,10.13
2023-02-19T06:56:28.133Z,10.11
2023-02-19T06:57:00.380Z,10.00
2023-02-19T06:57:31.992Z,9.99
2023-02-19T06:58:03.637Z,9.98
2023-02-19T06:58:35.565Z,9.96
2023-02-19T06:59:10.656Z,9.90
2023-02-19T06:59:42.317Z,9.91
2023-02-19T07:00:14.312Z,9.89
2023-02-19T07:00:45.985Z,9.87
2023-02-19T07:01:17.863Z,9.87
2023-02-19T07:01:49.526Z,9.90
2023-02-19T07:02:21.173Z,9.84
2023-02-19T07:02:56.614Z,9.80
2023-02-19T07:03:28.355Z,9.76
2023-02-19T07:04:00.138Z,9.78
2023-02-19T07:04:32.037Z,9.80
2023-02-19T07:05:03.871Z,9.78
2023-02-19T07:05:35.542Z,9.76
2023-02-19T07:06:07.496Z,9.74
2023-02-19T07:06:39.284Z,9.72
2023-02-19T07:07:12.256Z,9.74
2023-02-19T07:07:46.156Z,9.69
2023-02-19T07:08:18.270Z,9.68
2023-02-19T07:08:50.993Z,9.67
2023-02-19T07:09:23.371Z,9.67
2023-02-19T07:09:55.018Z,9.63
2023-02-19T07:10:26.656Z,9.63
2023-02-19T07:10:59.153Z,9.61
2023-02-19T07:11:33.883Z,9.59
2023-02-19T07:12:05.954Z,9.62
2023-02-19T07:12:37.592Z,9.62
2023-02-19T07:13:09.261Z,9.61
2023-02-19T07:13:40.953Z,9.59
2023-02-19T07:14:16.303Z,9.58
2023-02-19T07:14:48.308Z,9.57
2023-02-19T07:15:19.980Z,9.59
2023-02-19T07:15:52.269Z,9.58
2023-02-19T07:16:24.968Z,9.48
2023-02-19T07:16:56.661Z,9.45
2023-02-19T07:17:28.283Z,9.44
2023-02-19T07:18:00.055Z,9.40
2023-02-19T07:18:32.218Z,9.41
2023-02-19T07:19:03.996Z,9.42
2023-02-19T07:19:35.632Z,9.42
2023-02-19T07:20:07.385Z,9.42
2023-02-19T07:20:39.057Z,9.43
2023-02-19T07:21:13.504Z,9.41
2023-02-19T07:21:45.249Z,9.42
2023-02-19T07:22:16.895Z,9.43
2023-02-19T07:22:48.532Z,9.42
2023-02-19T07:23:20.368Z,9.40
2023-02-19T07:23:52.681Z,9.42
2023-02-19T07:24:24.341Z,9.47
2023-02-19T07:24:55.990Z,9.56
2023-02-19T07:25:27.608Z,9.77
2023-02-19T07:25:59.804Z,9.88
2023-02-19T07:26:31.567Z,9.91
2023-02-19T07:27:03.268Z,9.96
2023-02-19T07:27:34.902Z,10.04
2023-02-19T07:28:07.413Z,10.12
2023-02-19T07:28:41.334Z,10.27
2023-02-19T07:29:12.973Z,10.46
2023-02-19T07:29:44.633Z,10.53
2023-02-19T07:30:16.355Z,10.62
2023-02-19T07:30:48.051Z,10.70
2023-02-19T07:31:22.719Z,10.72
2023-02-19T07:31:54.469Z,10.74
2023-02-19T07:32:26.164Z,10.79
2023-02-19T07:32:57.792Z,10.80
2023-02-19T07:33:29.556Z,10.82
2023-02-19T07:34:01.190Z,10.83
2023-02-19T07:34:32.856Z,10.85
2023-02-19T07:35:04.702Z,10.87
2023-02-19T07:35:36.344Z,10.88
2023-02-19T07:36:08.552Z,10.86
2023-02-19T07:36:40.226Z,10.88
2023-02-19T07:37:11.881Z,10.89
2023-02-19T07:37:43.521Z,10.91